Time;durP1;ratioP1;P1;durP2;ratioP2;P2;SDS_P1;SDS_P2;PMS_P1;PMS_P2;Temp;Humidity;BMP_temperature;BMP_pressure;BME280_temperature;BME280_humidity;BME280_pressure;Samples;Min_cycle;Max_cycle;Signal;HPM_P1;HPM_P2
2023/08/14 00:01:07;;;;;;;5.70;4.90;;;21.50;99.90;;;;;;5034794;28;20210;-61
2023/08/14 00:03:33;;;;;;;5.80;5.30;;;21.50;99.90;;;;;;5038642;28;20185;-61
2023/08/14 00:05:59;;;;;;;6.30;5.70;;;21.50;99.90;;;;;;5036149;28;20567;-62
2023/08/14 00:08:25;;;;;;;5.03;4.63;;;21.50;99.90;;;;;;5035527;28;20200;-61
2023/08/14 00:10:50;;;;;;;5.40;4.90;;;21.50;99.90;;;;;;5031830;28;20537;-61
2023/08/14 00:13:20;;;;;;;5.70;5.17;;;21.50;99.90;;;;;;5029599;28;20320;-62
2023/08/14 00:15:47;;;;;;;5.70;5.20;;;21.60;99.90;;;;;;5024743;28;20225;-61
2023/08/14 00:18:12;;;;;;;5.70;5.17;;;21.60;99.90;;;;;;5032626;28;20188;-61
2023/08/14 00:20:38;;;;;;;5.70;5.20;;;21.60;99.90;;;;;;5034549;28;20430;-62
2023/08/14 00:23:03;;;;;;;6.60;6.00;;;21.60;99.90;;;;;;5030711;28;20194;-62
2023/08/14 00:25:29;;;;;;;6.03;5.53;;;21.70;99.90;;;;;;5037307;28;20754;-61
2023/08/14 00:27:55;;;;;;;5.53;5.03;;;21.70;99.90;;;;;;5034237;28;20178;-61
2023/08/14 00:30:21;;;;;;;5.07;4.60;;;21.70;99.90;;;;;;5030755;28;20200;-61
2023/08/14 00:32:47;;;;;;;5.82;5.25;;;21.60;99.90;;;;;;5036143;28;20186;-61
2023/08/14 00:35:13;;;;;;;5.00;4.60;;;21.60;99.90;;;;;;5027794;28;20663;-61
2023/08/14 00:37:46;;;;;;;7.07;5.43;;;21.60;99.90;;;;;;5035972;28;20451;-61
2023/08/14 00:40:15;;;;;;;5.40;5.00;;;21.60;99.90;;;;;;5026811;28;20281;-61
2023/08/14 00:42:43;;;;;;;4.88;4.47;;;21.60;99.90;;;;;;5027387;28;20244;-61
2023/08/14 00:45:09;;;;;;;6.80;6.13;;;21.70;99.90;;;;;;5034171;28;20248;-61
2023/08/14 00:47:36;;;;;;;6.63;5.20;;;21.70;99.90;;;;;;5031637;28;20500;-61
2023/08/14 00:50:10;;;;;;;5.63;4.87;;;21.80;99.90;;;;;;5034230;28;20630;-62
2023/08/14 00:52:39;;;;;;;4.57;4.27;;;21.80;99.90;;;;;;5022062;28;20450;-61
2023/08/14 00:55:10;;;;;;;5.20;4.70;;;21.80;99.90;;;;;;5027686;28;20439;-61
2023/08/14 00:57:36;;;;;;;5.43;4.80;;;21.80;99.90;;;;;;5031149;28;20476;-62
2023/08/14 01:00:06;;;;;;;5.95;4.90;;;21.80;99.90;;;;;;5024619;28;20504;-62
2023/08/14 01:02:33;;;;;;;5.50;5.00;;;21.90;99.90;;;;;;5029366;28;20186;-62
2023/08/14 01:04:59;;;;;;;6.90;6.05;;;21.90;99.90;;;;;;5029028;28;20523;-62
2023/08/14 01:07:24;;;;;;;5.53;5.00;;;21.90;99.90;;;;;;5028207;28;20277;-62
2023/08/14 01:09:51;;;;;;;8.07;5.20;;;21.80;99.90;;;;;;5029818;28;20186;-62
2023/08/14 01:12:37;;;;;;;6.35;5.05;;;21.90;99.90;;;;;;5031656;28;20268;-62
2023/08/14 01:15:09;;;;;;;5.13;4.63;;;21.90;99.90;;;;;;5030779;28;20225;-62
2023/08/14 01:17:37;;;;;;;5.80;5.30;;;21.90;99.90;;;;;;5030296;28;20831;-62
2023/08/14 01:20:04;;;;;;;5.90;5.40;;;21.90;99.90;;;;;;5029934;28;20457;-62
2023/08/14 01:22:53;;;;;;;5.40;4.90;;;22.00;99.90;;;;;;5032935;28;20932;-62
2023/08/14 01:25:25;;;;;;;5.32;4.60;;;22.00;99.90;;;;;;5030905;28;20547;-62
2023/08/14 01:27:51;;;;;;;5.20;4.70;;;22.00;99.90;;;;;;5027796;28;20194;-62
2023/08/14 01:30:17;;;;;;;4.80;4.40;;;21.90;99.90;;;;;;5026488;28;20181;-62
2023/08/14 01:32:43;;;;;;;5.70;5.20;;;21.90;99.90;;;;;;5035210;28;20193;-62
2023/08/14 01:35:09;;;;;;;5.20;4.80;;;21.90;99.90;;;;;;5031773;28;20192;-61
2023/08/14 01:37:59;;;;;;;5.40;5.00;;;21.90;99.90;;;;;;5029973;28;20181;-62
2023/08/14 01:40:45;;;;;;;6.90;6.30;;;21.90;99.90;;;;;;5026441;28;20733;-62
2023/08/14 01:43:21;;;;;;;6.97;6.37;;;21.90;99.90;;;;;;5031643;28;20452;-61
2023/08/14 01:45:47;;;;;;;6.83;6.23;;;22.00;99.90;;;;;;5030476;28;20444;-62
2023/08/14 01:48:14;;;;;;;7.13;6.60;;;22.00;99.90;;;;;;5031630;28;20455;-62
2023/08/14 01:50:41;;;;;;;6.70;6.10;;;22.10;99.90;;;;;;5037027;28;20197;-62
2023/08/14 01:53:07;;;;;;;7.10;6.40;;;22.20;99.90;;;;;;5032301;28;20444;-62
2023/08/14 01:55:33;;;;;;;7.43;6.73;;;22.30;99.90;;;;;;5030943;28;20469;-62
2023/08/14 01:57:58;;;;;;;6.87;6.37;;;22.30;99.90;;;;;;5021751;28;21761;-62
2023/08/14 02:00:26;;;;;;;5.67;5.20;;;22.40;99.90;;;;;;5034773;28;20504;-62
2023/08/14 02:02:53;;;;;;;5.60;5.10;;;22.40;99.90;;;;;;5030357;28;20667;-62
2023/08/14 02:05:18;;;;;;;4.93;4.30;;;22.40;99.90;;;;;;5036993;28;21000;-62
2023/08/14 02:07:44;;;;;;;4.87;4.37;;;22.40;99.90;;;;;;5028168;28;20443;-63
2023/08/14 02:10:10;;;;;;;4.60;4.20;;;22.40;99.90;;;;;;5036677;28;20194;-61
2023/08/14 02:12:35;;;;;;;4.20;3.80;;;22.40;99.90;;;;;;5031377;28;20193;-61
2023/08/14 02:15:01;;;;;;;5.63;4.60;;;22.30;99.90;;;;;;5029527;28;20679;-61
2023/08/14 02:17:27;;;;;;;4.00;3.70;;;22.30;99.90;;;;;;5034791;28;20208;-61
2023/08/14 02:19:54;;;;;;;3.67;3.47;;;22.30;99.90;;;;;;5030405;28;20221;-61
2023/08/14 02:22:20;;;;;;;3.80;3.50;;;22.20;99.90;;;;;;5032506;28;20520;-61
2023/08/14 02:24:45;;;;;;;3.47;3.27;;;22.20;99.90;;;;;;5032640;28;20495;-61
2023/08/14 02:27:11;;;;;;;4.77;3.90;;;22.20;99.90;;;;;;5029993;28;20201;-61
2023/08/14 02:29:36;;;;;;;4.60;4.20;;;22.10;99.90;;;;;;5027309;28;20643;-61
2023/08/14 02:32:03;;;;;;;4.50;4.10;;;22.10;99.90;;;;;;5033670;28;20240;-61
2023/08/14 02:34:48;;;;;;;5.17;4.67;;;22.10;99.90;;;;;;5033855;28;20282;-61
2023/08/14 02:37:15;;;;;;;8.50;7.70;;;22.00;99.90;;;;;;5030702;28;20814;-61
2023/08/14 02:39:41;;;;;;;4.45;3.90;;;22.00;99.90;;;;;;5032110;28;20482;-61
2023/08/14 02:42:07;;;;;;;4.10;3.70;;;22.00;99.90;;;;;;5027379;28;20194;-61
2023/08/14 02:44:33;;;;;;;3.43;3.23;;;21.90;99.90;;;;;;5030961;28;20455;-61
2023/08/14 02:46:59;;;;;;;4.23;3.63;;;21.80;99.90;;;;;;5030546;28;20500;-61
2023/08/14 02:49:25;;;;;;;4.10;3.40;;;21.70;99.90;;;;;;5027941;28;20547;-62
2023/08/14 02:51:51;;;;;;;3.70;3.40;;;21.40;99.90;;;;;;5029123;28;20186;-62
2023/08/14 02:54:16;;;;;;;4.93;3.60;;;21.20;99.90;;;;;;5028956;28;21135;-62
2023/08/14 02:56:42;;;;;;;4.00;3.60;;;21.10;99.90;;;;;;5026695;28;20228;-62
2023/08/14 02:59:08;;;;;;;4.47;4.00;;;21.00;99.90;;;;;;5026794;28;20675;-62
2023/08/14 03:01:34;;;;;;;4.20;3.90;;;20.90;99.90;;;;;;5027469;28;20444;-62
2023/08/14 03:03:59;;;;;;;5.03;3.60;;;20.90;99.90;;;;;;5024358;28;20185;-61
2023/08/14 03:06:25;;;;;;;3.67;3.37;;;20.90;99.90;;;;;;5025024;28;20728;-61
2023/08/14 03:08:52;;;;;;;3.70;3.50;;;20.90;99.90;;;;;;5023438;28;20644;-64
2023/08/14 03:11:18;;;;;;;4.50;4.10;;;20.90;99.90;;;;;;5032913;28;20243;-64
2023/08/14 03:13:44;;;;;;;4.60;4.20;;;21.20;99.90;;;;;;5024050;28;20535;-62
2023/08/14 03:16:09;;;;;;;4.47;4.17;;;20.80;99.90;;;;;;5036087;28;21717;-61
2023/08/14 03:18:35;;;;;;;5.10;4.00;;;20.80;99.90;;;;;;5025509;28;20683;-62
2023/08/14 03:21:00;;;;;;;4.57;4.17;;;21.00;99.90;;;;;;5026543;28;20195;-64
2023/08/14 03:23:26;;;;;;;4.73;4.33;;;20.80;99.90;;;;;;5028359;28;20218;-61
2023/08/14 03:25:51;;;;;;;5.03;4.53;;;20.80;99.90;;;;;;5024666;28;20211;-64
2023/08/14 03:28:17;;;;;;;6.17;4.50;;;20.80;99.90;;;;;;5027880;28;20200;-64
2023/08/14 03:30:43;;;;;;;5.70;5.07;;;20.80;99.90;;;;;;5027879;28;20187;-62
2023/08/14 03:33:09;;;;;;;5.90;5.40;;;20.90;99.90;;;;;;5024107;28;20191;-63
2023/08/14 03:35:35;;;;;;;6.20;4.47;;;20.80;99.90;;;;;;5025390;28;20553;-63
2023/08/14 03:38:00;;;;;;;5.57;5.07;;;20.80;99.90;;;;;;5033133;28;20541;-61
2023/08/14 03:40:26;;;;;;;5.00;4.70;;;20.80;99.90;;;;;;5028109;28;20608;-63
2023/08/14 03:42:52;;;;;;;5.10;4.50;;;19.50;99.90;;;;;;5031073;28;20202;-63
2023/08/14 03:45:18;;;;;;;5.20;4.80;;;20.70;99.90;;;;;;5030921;28;20466;-63
2023/08/14 03:47:43;;;;;;;4.23;3.93;;;20.70;99.90;;;;;;5026972;28;20695;-64
2023/08/14 03:50:09;;;;;;;4.87;4.50;;;20.60;99.90;;;;;;5030719;28;20228;-63
2023/08/14 03:52:35;;;;;;;5.53;5.13;;;20.60;99.90;;;;;;5029517;28;20190;-63
2023/08/14 03:55:01;;;;;;;4.57;4.23;;;20.50;99.90;;;;;;5026589;28;21851;-63
2023/08/14 03:57:26;;;;;;;5.07;4.67;;;20.50;99.90;;;;;;5025431;28;20193;-63
2023/08/14 03:59:52;;;;;;;5.20;4.80;;;20.50;99.90;;;;;;5027123;28;20221;-63
2023/08/14 04:02:17;;;;;;;6.00;5.47;;;20.50;99.90;;;;;;5030587;28;20418;-63
2023/08/14 04:04:43;;;;;;;5.73;5.23;;;20.50;99.90;;;;;;5035866;28;20194;-63
2023/08/14 04:07:09;;;;;;;9.13;5.30;;;20.50;99.90;;;;;;5027581;28;20269;-67
2023/08/14 04:09:34;;;;;;;5.97;5.47;;;20.50;99.90;;;;;;5026836;28;20296;-67
2023/08/14 04:12:01;;;;;;;6.10;5.50;;;20.40;99.90;;;;;;5033136;28;20268;-67
2023/08/14 04:14:27;;;;;;;6.05;5.28;;;20.40;99.90;;;;;;5031166;28;20170;-67
2023/08/14 04:16:54;;;;;;;5.57;5.07;;;20.30;99.90;;;;;;5027382;28;20198;-67
2023/08/14 04:19:20;;;;;;;5.47;4.97;;;20.30;99.90;;;;;;5031289;28;20495;-67
2023/08/14 04:21:46;;;;;;;5.63;5.22;;;20.20;99.90;;;;;;5025772;28;20603;-67
2023/08/14 04:24:12;;;;;;;4.47;4.18;;;20.20;99.90;;;;;;5033722;28;20598;-67
2023/08/14 04:26:38;;;;;;;5.27;4.77;;;20.20;99.90;;;;;;5031556;28;20285;-67
2023/08/14 04:29:08;;;;;;;5.40;4.90;;;20.20;99.90;;;;;;5034439;28;20452;-67
2023/08/14 04:31:37;;;;;;;5.20;4.70;;;20.10;99.90;;;;;;5026904;28;20194;-67
2023/08/14 04:34:04;;;;;;;5.80;5.30;;;20.10;99.90;;;;;;5025839;28;20261;-67
2023/08/14 04:36:34;;;;;;;7.60;6.35;;;20.00;99.90;;;;;;5032136;28;20212;-67
2023/08/14 04:39:00;;;;;;;5.45;4.95;;;20.10;99.90;;;;;;5031222;28;20605;-67
2023/08/14 04:41:27;;;;;;;6.25;5.65;;;20.20;99.90;;;;;;5030951;28;20178;-67
2023/08/14 04:43:53;;;;;;;5.55;5.05;;;20.10;99.90;;;;;;5026910;28;20189;-67
2023/08/14 04:46:36;;;;;;;5.78;5.13;;;20.00;99.90;;;;;;5029642;28;20197;-67
2023/08/14 04:49:02;;;;;;;4.97;4.57;;;20.00;99.90;;;;;;5026751;28;20754;-67
2023/08/14 04:51:28;;;;;;;5.68;5.18;;;20.00;99.90;;;;;;5033496;28;20213;-67
2023/08/14 04:53:55;;;;;;;5.28;4.85;;;20.00;99.90;;;;;;5028115;28;20193;-67
2023/08/14 04:56:20;;;;;;;5.90;5.30;;;20.10;99.90;;;;;;5034509;28;20213;-67
2023/08/14 04:58:46;;;;;;;8.43;5.27;;;20.20;99.90;;;;;;5026320;28;20210;-67
2023/08/14 05:01:12;;;;;;;6.20;5.60;;;20.20;99.90;;;;;;5028184;28;20658;-67
2023/08/14 05:03:38;;;;;;;6.03;4.40;;;20.30;99.90;;;;;;5030707;28;20553;-67
2023/08/14 05:06:04;;;;;;;4.30;4.00;;;20.30;99.90;;;;;;5028744;28;20699;-67
2023/08/14 05:08:31;;;;;;;4.13;3.83;;;20.20;99.90;;;;;;5031695;28;20222;-67
2023/08/14 05:10:57;;;;;;;5.03;4.63;;;20.20;99.90;;;;;;5026055;28;20183;-67
2023/08/14 05:13:22;;;;;;;4.45;4.10;;;20.20;99.90;;;;;;5026738;28;20192;-67
2023/08/14 05:15:50;;;;;;;4.67;4.37;;;20.30;99.90;;;;;;5030451;28;20217;-67
2023/08/14 05:18:16;;;;;;;5.10;4.60;;;20.30;99.90;;;;;;5030765;28;20596;-67
2023/08/14 05:20:46;;;;;;;5.30;4.68;;;20.30;99.90;;;;;;5026506;28;20574;-67
2023/08/14 05:23:12;;;;;;;3.97;3.67;;;20.40;99.90;;;;;;5028840;28;20221;-67
2023/08/14 05:25:38;;;;;;;3.95;3.50;;;20.40;99.90;;;;;;5027954;28;20207;-67
2023/08/14 05:28:05;;;;;;;4.50;3.80;;;20.50;99.90;;;;;;5027533;28;20631;-68
2023/08/14 05:30:31;;;;;;;4.13;3.67;;;20.50;99.90;;;;;;5025256;28;20248;-67
2023/08/14 05:32:57;;;;;;;3.95;3.65;;;20.60;99.90;;;;;;5028871;28;20210;-67
2023/08/14 05:35:23;;;;;;;4.17;3.57;;;20.80;99.90;;;;;;5032106;28;20706;-67
2023/08/14 05:37:55;;;;;;;3.97;3.65;;;20.90;99.90;;;;;;5023045;28;20184;-67
2023/08/14 05:40:22;;;;;;;4.25;3.90;;;21.00;99.90;;;;;;5031350;28;20637;-68
2023/08/14 05:43:09;;;;;;;4.35;3.95;;;21.20;99.90;;;;;;5026602;28;20274;-68
2023/08/14 05:45:48;;;;;;;4.80;3.25;;;21.40;99.90;;;;;;5026325;28;20199;-67
2023/08/14 05:48:14;;;;;;;5.28;4.05;;;21.50;99.90;;;;;;5029945;28;20659;-66
2023/08/14 05:50:41;;;;;;;4.73;3.37;;;21.60;99.90;;;;;;5028122;28;20194;-67
2023/08/14 05:53:07;;;;;;;4.10;3.80;;;21.60;99.90;;;;;;5031022;28;20186;-67
2023/08/14 05:55:35;;;;;;;4.10;3.70;;;21.70;99.90;;;;;;5028717;28;20214;-67
2023/08/14 05:58:02;;;;;;;4.63;3.50;;;21.70;99.90;;;;;;5027633;28;20645;-68
2023/08/14 06:00:28;;;;;;;3.60;3.30;;;21.70;99.90;;;;;;5029624;28;20226;-66
2023/08/14 06:02:54;;;;;;;3.72;3.42;;;21.60;99.90;;;;;;5033398;28;20432;-66
2023/08/14 06:05:20;;;;;;;3.87;3.20;;;21.60;99.90;;;;;;5030480;28;20209;-66
2023/08/14 06:07:47;;;;;;;3.07;2.77;;;21.70;99.90;;;;;;5030020;28;20501;-66
2023/08/14 06:10:13;;;;;;;4.22;3.92;;;21.80;99.90;;;;;;5033793;28;21048;-66
2023/08/14 06:12:39;;;;;;;3.87;3.57;;;21.80;99.90;;;;;;5025399;28;20276;-66
2023/08/14 06:15:05;;;;;;;4.50;4.10;;;21.90;99.90;;;;;;5031518;28;20553;-66
2023/08/14 06:17:32;;;;;;;4.73;3.80;;;22.00;99.90;;;;;;5031684;28;20647;-66
2023/08/14 06:19:58;;;;;;;6.53;4.00;;;22.10;99.90;;;;;;5027801;28;20472;-66
2023/08/14 06:22:24;;;;;;;4.40;4.00;;;22.20;99.90;;;;;;5029560;28;20853;-67
2023/08/14 06:24:50;;;;;;;5.10;3.70;;;22.30;99.90;;;;;;5028828;28;20436;-66
2023/08/14 06:27:15;;;;;;;7.60;6.60;;;22.30;99.90;;;;;;5033799;28;20547;-66
2023/08/14 06:29:41;;;;;;;8.20;4.70;;;22.30;99.90;;;;;;5029801;28;20658;-66
2023/08/14 06:32:06;;;;;;;4.50;4.03;;;22.30;99.90;;;;;;5028839;28;20194;-66
2023/08/14 06:34:33;;;;;;;4.90;4.23;;;22.30;99.90;;;;;;5031370;28;20538;-66
2023/08/14 06:36:59;;;;;;;4.15;3.75;;;22.30;99.90;;;;;;5031217;28;20694;-66
2023/08/14 06:39:25;;;;;;;4.20;3.90;;;22.40;99.90;;;;;;5028110;28;20220;-67
2023/08/14 06:41:50;;;;;;;6.17;4.17;;;22.50;99.90;;;;;;5027933;28;20513;-66
2023/08/14 06:44:16;;;;;;;4.60;4.20;;;22.60;99.90;;;;;;5029611;28;20186;-66
2023/08/14 06:46:42;;;;;;;3.73;3.50;;;22.70;99.90;;;;;;5030271;28;20201;-66
2023/08/14 06:49:10;;;;;;;3.50;3.00;;;22.90;99.90;;;;;;5028401;28;20445;-66
2023/08/14 06:51:36;;;;;;;4.30;3.33;;;22.80;99.90;;;;;;5025787;28;20885;-66
2023/08/14 06:54:01;;;;;;;5.07;4.57;;;23.00;99.90;;;;;;5029606;28;20943;-66
2023/08/14 06:56:27;;;;;;;5.97;4.40;;;23.10;99.90;;;;;;5028721;28;20207;-65
2023/08/14 06:58:52;;;;;;;3.83;3.43;;;23.20;99.90;;;;;;5025167;28;20218;-66
2023/08/14 07:01:19;;;;;;;4.90;3.10;;;23.40;99.90;;;;;;5032645;28;20566;-66
2023/08/14 07:03:44;;;;;;;4.17;3.77;;;23.50;99.90;;;;;;5032513;28;20181;-66
2023/08/14 07:06:10;;;;;;;4.57;4.27;;;23.70;99.90;;;;;;5028089;28;20474;-66
2023/08/14 07:08:36;;;;;;;4.43;4.03;;;23.90;99.90;;;;;;5031622;28;20938;-66
2023/08/14 07:11:01;;;;;;;4.00;3.70;;;24.40;99.90;;;;;;5028303;28;20195;-66
2023/08/14 07:13:27;;;;;;;3.53;3.20;;;24.90;99.90;;;;;;5036419;28;20192;-66
2023/08/14 07:15:52;;;;;;;3.03;2.83;;;26.40;99.90;;;;;;5034610;28;20298;-66
2023/08/14 07:18:18;;;;;;;3.80;3.33;;;28.80;99.90;;;;;;5035083;28;20193;-67
2023/08/14 07:20:45;;;;;;;3.33;3.00;;;31.30;98.60;;;;;;5035003;28;20307;-67
2023/08/14 07:23:20;;;;;;;3.17;2.97;;;33.80;94.20;;;;;;5035795;28;20447;-67
2023/08/14 07:25:47;;;;;;;3.20;3.00;;;36.20;87.20;;;;;;5034593;28;20451;-67
2023/08/14 07:28:12;;;;;;;3.37;2.90;;;38.20;78.60;;;;;;5036261;28;20808;-68
2023/08/14 07:30:39;;;;;;;3.60;3.37;;;38.60;73.10;;;;;;5032871;28;20447;-68
2023/08/14 07:33:07;;;;;;;5.07;3.73;;;39.70;67.90;;;;;;5031844;28;20232;-68
2023/08/14 07:35:33;;;;;;;3.00;2.80;;;40.00;65.00;;;;;;5037215;28;20539;-67
2023/08/14 07:37:59;;;;;;;3.27;2.97;;;40.80;62.20;;;;;;5031754;28;20452;-67
2023/08/14 07:40:25;;;;;;;4.83;3.50;;;41.00;59.30;;;;;;5035769;28;20476;-68
2023/08/14 07:42:50;;;;;;;5.10;4.70;;;39.90;61.10;;;;;;5032526;28;20916;-67
2023/08/14 07:45:16;;;;;;;2.60;2.40;;;39.70;61.40;;;;;;5036106;28;20461;-68
2023/08/14 07:47:42;;;;;;;2.77;2.57;;;41.60;58.20;;;;;;5037981;28;20191;-67
2023/08/14 07:50:09;;;;;;;3.70;3.40;;;43.00;55.60;;;;;;5035880;28;20568;-68
2023/08/14 07:52:34;;;;;;;3.20;2.90;;;43.90;52.90;;;;;;5033183;28;20186;-68
2023/08/14 07:55:01;;;;;;;4.97;3.30;;;44.20;51.60;;;;;;5035337;28;20491;-67
2023/08/14 07:57:27;;;;;;;4.30;4.00;;;43.00;50.20;;;;;;5040857;28;20609;-67
2023/08/14 07:59:53;;;;;;;3.20;2.90;;;40.10;55.80;;;;;;5031412;28;20465;-68
2023/08/14 08:02:19;;;;;;;3.10;2.90;;;41.40;54.40;;;;;;5040849;28;20444;-68
2023/08/14 08:04:45;;;;;;;3.37;2.80;;;42.40;52.30;;;;;;5034773;28;20527;-68
2023/08/14 08:07:10;;;;;;;3.67;3.37;;;42.80;50.60;;;;;;5036662;28;20487;-68
2023/08/14 08:09:36;;;;;;;3.27;2.97;;;42.70;50.80;;;;;;5039993;28;20261;-67
2023/08/14 08:12:02;;;;;;;2.73;2.53;;;41.30;53.40;;;;;;5032979;28;20220;-68
2023/08/14 08:14:28;;;;;;;2.00;1.90;;;42.10;51.00;;;;;;5035461;28;20816;-68
2023/08/14 08:16:53;;;;;;;2.20;2.00;;;43.10;49.40;;;;;;5034965;28;20487;-68
2023/08/14 08:19:19;;;;;;;2.00;1.90;;;42.70;48.20;;;;;;5030757;28;20210;-67
2023/08/14 08:21:44;;;;;;;2.50;2.30;;;42.20;48.10;;;;;;5038936;28;20213;-67
2023/08/14 08:24:10;;;;;;;3.40;2.63;;;42.70;47.60;;;;;;5034700;28;20698;-67
2023/08/14 08:26:36;;;;;;;2.80;2.50;;;42.40;47.20;;;;;;5035375;28;20209;-68
2023/08/14 08:29:02;;;;;;;2.23;2.10;;;42.70;47.60;;;;;;5030671;28;20190;-68
2023/08/14 08:31:28;;;;;;;2.20;2.10;;;42.70;46.80;;;;;;5032557;28;20190;-68
2023/08/14 08:33:54;;;;;;;2.30;2.10;;;42.70;47.40;;;;;;5026520;28;20884;-68
2023/08/14 08:36:19;;;;;;;2.33;2.20;;;43.30;46.30;;;;;;5032125;28;20600;-67
2023/08/14 08:38:46;;;;;;;2.17;2.07;;;43.30;46.00;;;;;;5035933;28;20186;-68
2023/08/14 08:41:16;;;;;;;2.70;2.50;;;43.00;45.90;;;;;;5031365;28;20192;-68
2023/08/14 08:43:42;;;;;;;2.70;2.50;;;43.00;44.90;;;;;;5031182;28;20443;-68
2023/08/14 08:46:09;;;;;;;2.70;2.50;;;43.40;45.80;;;;;;5033451;28;20449;-68
2023/08/14 08:48:40;;;;;;;2.87;2.67;;;43.80;44.80;;;;;;5034175;28;20534;-68
2023/08/14 08:51:06;;;;;;;2.90;2.67;;;43.70;44.70;;;;;;5034533;28;20930;-67
2023/08/14 08:53:33;;;;;;;2.90;2.70;;;43.80;45.00;;;;;;5030803;28;20451;-67
2023/08/14 08:55:58;;;;;;;3.57;3.23;;;44.50;43.70;;;;;;5037538;28;20814;-68
2023/08/14 08:58:25;;;;;;;3.77;3.20;;;43.40;45.30;;;;;;5032824;28;20455;-67
2023/08/14 09:00:54;;;;;;;3.03;2.83;;;43.70;45.10;;;;;;5027467;28;20214;-69
2023/08/14 09:03:20;;;;;;;4.87;3.20;;;43.70;45.20;;;;;;5035025;28;20444;-69
2023/08/14 09:05:46;;;;;;;3.73;3.53;;;43.80;44.50;;;;;;5032063;28;20832;-67
2023/08/14 09:08:12;;;;;;;4.80;2.93;;;44.80;43.70;;;;;;5029807;28;20468;-68
2023/08/14 09:10:37;;;;;;;5.10;3.50;;;45.30;43.20;;;;;;5033224;28;20190;-67
2023/08/14 09:13:03;;;;;;;3.83;3.63;;;44.90;42.80;;;;;;5027311;28;20198;-68
2023/08/14 09:15:29;;;;;;;3.30;3.10;;;44.90;41.60;;;;;;5029967;28;20233;-68
2023/08/14 09:17:55;;;;;;;3.20;3.00;;;44.20;42.00;;;;;;5025492;28;20648;-67
2023/08/14 09:20:21;;;;;;;3.43;3.23;;;43.70;43.20;;;;;;5029437;28;20472;-68
2023/08/14 09:22:47;;;;;;;3.27;3.07;;;43.60;43.20;;;;;;5032059;28;20182;-67
2023/08/14 09:25:14;;;;;;;3.50;3.23;;;42.70;44.50;;;;;;5027748;28;20990;-67
2023/08/14 09:27:42;;;;;;;3.40;3.20;;;41.60;45.90;;;;;;5028451;28;20193;-67
2023/08/14 09:30:10;;;;;;;3.90;3.60;;;40.60;48.20;;;;;;5021166;28;20499;-67
2023/08/14 09:32:36;;;;;;;6.57;3.73;;;39.70;49.90;;;;;;5027470;28;20469;-67
2023/08/14 09:35:02;;;;;;;3.97;3.67;;;38.70;52.10;;;;;;5025005;28;20460;-66
2023/08/14 09:37:28;;;;;;;5.23;3.60;;;37.40;54.20;;;;;;5030956;28;20190;-68
2023/08/14 09:40:13;;;;;;;4.13;3.83;;;36.90;56.00;;;;;;5025545;28;20553;-68
2023/08/14 09:42:38;;;;;;;4.00;3.60;;;35.80;58.50;;;;;;5018967;28;20536;-66
2023/08/14 09:45:05;;;;;;;3.80;3.50;;;35.10;60.20;;;;;;5042997;28;20531;-66
2023/08/14 09:47:31;;;;;;;4.00;3.70;;;34.40;63.10;;;;;;5027180;28;20281;-66
2023/08/14 09:49:58;;;;;;;4.10;3.80;;;34.20;65.50;;;;;;5032817;28;20467;-65
2023/08/14 09:52:24;;;;;;;3.80;3.40;;;34.00;65.80;;;;;;5026421;28;20452;-66
2023/08/14 09:54:50;;;;;;;5.47;3.67;;;33.60;68.40;;;;;;5031526;28;20498;-65
2023/08/14 09:57:16;;;;;;;4.10;3.80;;;33.30;68.30;;;;;;5023889;28;20527;-66
2023/08/14 09:59:42;;;;;;;4.33;3.93;;;33.00;68.60;;;;;;5026946;28;20556;-66
2023/08/14 10:02:14;;;;;;;4.10;3.60;;;33.70;68.60;;;;;;5029770;28;20566;-65
2023/08/14 10:04:42;;;;;;;4.00;3.70;;;33.40;69.60;;;;;;5033130;28;20272;-66
2023/08/14 10:07:09;;;;;;;4.13;3.73;;;33.10;71.20;;;;;;5024667;28;20471;-66
2023/08/14 10:09:38;;;;;;;5.67;4.20;;;33.20;70.80;;;;;;5032404;28;20531;-66
2023/08/14 10:12:11;;;;;;;3.77;3.40;;;33.00;71.90;;;;;;5033318;28;20890;-66
2023/08/14 10:14:39;;;;;;;4.03;3.70;;;32.70;72.20;;;;;;5029738;28;20459;-67
2023/08/14 10:17:09;;;;;;;4.27;3.93;;;32.70;73.50;;;;;;5031346;28;20475;-65
2023/08/14 10:19:37;;;;;;;4.03;3.73;;;32.90;73.80;;;;;;5028402;28;20504;-66
2023/08/14 10:22:06;;;;;;;4.37;4.07;;;33.00;72.80;;;;;;5029084;28;20459;-66
2023/08/14 10:24:36;;;;;;;4.23;3.93;;;33.10;73.10;;;;;;5026457;28;20519;-66
2023/08/14 10:27:04;;;;;;;4.23;3.90;;;33.20;72.00;;;;;;5030259;28;20453;-66
2023/08/14 10:29:32;;;;;;;4.20;3.90;;;33.10;72.10;;;;;;5031138;28;20886;-66
2023/08/14 10:31:59;;;;;;;4.50;4.20;;;33.20;72.30;;;;;;5030993;28;20459;-67
2023/08/14 10:34:26;;;;;;;3.97;3.70;;;33.40;72.60;;;;;;5026421;28;20440;-67
2023/08/14 10:36:52;;;;;;;4.00;3.70;;;33.60;72.10;;;;;;5032345;28;21043;-66
2023/08/14 10:39:19;;;;;;;4.40;4.10;;;33.60;72.60;;;;;;5026133;28;20471;-66
2023/08/14 10:41:44;;;;;;;4.40;4.10;;;33.60;70.80;;;;;;5029065;28;20498;-65
2023/08/14 10:44:11;;;;;;;4.30;3.83;;;33.30;71.80;;;;;;5029127;28;20447;-66
2023/08/14 10:46:44;;;;;;;4.60;4.23;;;33.20;73.10;;;;;;5032815;28;20216;-66
2023/08/14 10:49:13;;;;;;;4.63;4.23;;;33.20;72.30;;;;;;5035720;28;20835;-66
2023/08/14 10:51:41;;;;;;;5.07;4.43;;;33.50;72.30;;;;;;5029135;28;20472;-66
2023/08/14 10:54:10;;;;;;;4.93;4.53;;;33.30;72.70;;;;;;5032234;28;20451;-66
2023/08/14 10:56:49;;;;;;;4.43;4.10;;;33.30;71.90;;;;;;5030996;28;20460;-66
2023/08/14 10:59:28;;;;;;;4.57;4.27;;;33.40;70.80;;;;;;5034155;28;20468;-66
2023/08/14 11:02:09;;;;;;;5.87;4.40;;;33.50;71.50;;;;;;5032424;28;20807;-66
2023/08/14 11:04:59;;;;;;;4.07;3.80;;;33.40;71.40;;;;;;5027429;28;20443;-66
2023/08/14 11:07:29;;;;;;;4.27;3.97;;;33.30;71.70;;;;;;5033178;28;20457;-66
2023/08/14 11:09:58;;;;;;;4.83;4.43;;;33.00;72.00;;;;;;5033085;28;20857;-66
2023/08/14 11:12:25;;;;;;;4.53;4.23;;;32.80;73.90;;;;;;5035262;28;20486;-67
2023/08/14 11:14:52;;;;;;;4.10;3.90;;;32.80;73.80;;;;;;5032648;28;20449;-66
2023/08/14 11:17:18;;;;;;;3.97;3.57;;;32.80;74.10;;;;;;5031861;28;20470;-65
2023/08/14 11:19:44;;;;;;;4.80;4.13;;;32.80;73.80;;;;;;5037940;28;20820;-66
2023/08/14 11:22:09;;;;;;;5.60;3.80;;;32.90;74.70;;;;;;5034453;28;20201;-66
2023/08/14 11:24:36;;;;;;;5.30;4.50;;;33.00;73.90;;;;;;5035367;28;20185;-66
2023/08/14 11:27:02;;;;;;;5.00;4.03;;;32.80;73.70;;;;;;5035800;28;20635;-66
2023/08/14 11:29:28;;;;;;;5.10;4.70;;;32.70;75.10;;;;;;5026762;28;20456;-66
2023/08/14 11:31:54;;;;;;;4.77;4.37;;;32.60;75.00;;;;;;5038249;28;20452;-65
2023/08/14 11:34:21;;;;;;;4.27;3.90;;;32.70;74.50;;;;;;5030103;28;20674;-66
2023/08/14 11:37:02;;;;;;;4.60;4.20;;;32.70;74.30;;;;;;5033108;28;20455;-65
2023/08/14 11:39:28;;;;;;;4.87;4.37;;;33.00;73.10;;;;;;5033896;28;20575;-66
2023/08/14 11:41:53;;;;;;;4.40;4.10;;;33.00;72.60;;;;;;5037629;28;20522;-65
2023/08/14 11:44:20;;;;;;;4.50;4.10;;;33.10;71.10;;;;;;5031243;28;20657;-65
2023/08/14 11:46:47;;;;;;;4.70;4.40;;;33.20;70.90;;;;;;5030230;28;20455;-66
2023/08/14 11:49:14;;;;;;;4.67;4.37;;;33.50;71.20;;;;;;5032709;28;20428;-65
2023/08/14 11:51:41;;;;;;;4.50;4.10;;;33.40;70.90;;;;;;5029773;28;20947;-66
2023/08/14 11:54:09;;;;;;;4.50;4.23;;;33.50;71.10;;;;;;5031097;28;20478;-66
2023/08/14 11:56:37;;;;;;;4.30;4.00;;;33.50;70.90;;;;;;5031705;28;20503;-66
2023/08/14 11:59:06;;;;;;;5.10;4.70;;;33.70;70.80;;;;;;5031356;28;20473;-66
2023/08/14 12:01:35;;;;;;;4.40;4.10;;;33.70;70.30;;;;;;5032422;28;20970;-67
2023/08/14 12:04:00;;;;;;;4.43;4.10;;;33.50;69.40;;;;;;5034088;28;20853;-66
2023/08/14 12:06:26;;;;;;;4.67;4.37;;;33.30;69.10;;;;;;5030583;28;20480;-67
2023/08/14 12:08:52;;;;;;;4.70;4.40;;;33.30;69.80;;;;;;5033872;28;20182;-66
2023/08/14 12:11:18;;;;;;;4.83;4.50;;;33.50;69.70;;;;;;5032335;28;20829;-66
2023/08/14 12:13:51;;;;;;;4.67;4.27;;;33.40;69.40;;;;;;5030085;28;20208;-67
2023/08/14 12:16:19;;;;;;;4.07;3.77;;;33.40;70.30;;;;;;5034884;28;20666;-65
2023/08/14 12:18:46;;;;;;;5.00;4.60;;;33.50;67.00;;;;;;5038628;28;20489;-66
2023/08/14 12:21:12;;;;;;;4.53;4.13;;;33.50;67.20;;;;;;5035081;28;20440;-66
2023/08/14 12:23:48;;;;;;;4.37;4.07;;;33.40;68.10;;;;;;5035717;28;20441;-66
2023/08/14 12:26:14;;;;;;;4.30;3.90;;;33.30;69.50;;;;;;5036125;28;20497;-66
2023/08/14 12:28:41;;;;;;;5.50;5.10;;;33.10;70.50;;;;;;5032157;28;20454;-66
2023/08/14 12:31:07;;;;;;;4.40;4.10;;;32.90;71.40;;;;;;5033985;28;20440;-66
2023/08/14 12:33:33;;;;;;;5.00;4.50;;;33.00;73.60;;;;;;5036494;28;20818;-67
2023/08/14 12:35:59;;;;;;;4.80;4.40;;;33.00;74.20;;;;;;5036241;28;21018;-66
2023/08/14 12:38:25;;;;;;;5.10;4.70;;;32.90;74.20;;;;;;5030818;28;20537;-65
2023/08/14 12:40:51;;;;;;;5.37;4.87;;;32.80;74.90;;;;;;5027647;28;20476;-66
2023/08/14 12:43:17;;;;;;;5.53;4.20;;;32.90;74.40;;;;;;5030612;28;20442;-65
2023/08/14 12:45:43;;;;;;;4.80;4.40;;;31.90;78.90;;;;;;5032820;28;20587;-66
2023/08/14 12:48:09;;;;;;;4.90;4.37;;;31.60;81.20;;;;;;5035440;28;20186;-65